WMKM/MKZ METAR and TAF weather

Enter ICAO airport designator
Station Type Date Time Source
WMKM METAR 2019/10/23 02:00 UTC NOAA

WMKM 230200Z 05005KT 340V120 9000 FEW020 SCT140 BKN280 29/25 Q1011


Station Type Date Time Source
WMKM Decoded METAR 2019/10/23 02:00 UTC NOAA

Malacca, Malaysia (WMKM) 02-16N 102-15E 9M
Oct 22, 2019 - 10:00 PM EDT / 2019.10.23 0200 UTC
Wind: from the NE (050 degrees) at 6 MPH (5 KT) (direction variable):0
Visibility: 5 mile(s):0
Sky conditions: mostly cloudy
Temperature: 84 F (29 C)
Dew Point: 77 F (25 C)
Relative Humidity: 79%
Pressure (altimeter): 29.85 in. Hg (1011 hPa)
ob: WMKM 230200Z 05005KT 340V120 9000 FEW020 SCT140 BKN280 29/25 Q1011
cycle: 2

Station Type Date Time Source
WMKM TAF 2019/10/22 18:00 UTC NOAA

TAF WMKM 221700Z 2218/2318 VRB02KT 8000 FEW028
BECMG 2300/2302 9999 FEW018
TEMPO 2307/2311 22010KT 4000 TSRA FEW010 FEW016CB SCT018

Example: see airport list